createdAt,value
2022-10-28T00:01:45.115Z,1033.81
2022-10-28T00:04:11.966Z,1033.82
2022-10-28T00:06:40.430Z,1034.03
2022-10-28T00:09:09.797Z,1033.95
2022-10-28T00:11:40.452Z,1033.92
2022-10-28T00:14:09.608Z,1033.98
2022-10-28T00:16:37.115Z,1033.93
2022-10-28T00:19:06.210Z,1033.90
2022-10-28T00:21:36.256Z,1033.80
2022-10-28T00:24:05.590Z,1033.85
2022-10-28T00:26:34.052Z,1033.87
2022-10-28T00:29:03.579Z,1033.87
2022-10-28T00:31:31.352Z,1033.89
2022-10-28T00:34:00.569Z,1033.84
2022-10-28T00:36:29.130Z,1033.80
2022-10-28T00:38:56.989Z,1033.87
2022-10-28T00:41:28.900Z,1033.86
2022-10-28T00:43:57.928Z,1033.78
2022-10-28T00:46:30.469Z,1033.83
2022-10-28T00:49:03.295Z,1033.79
2022-10-28T00:51:33.340Z,1033.82
2022-10-28T00:54:00.585Z,1033.79
2022-10-28T00:56:33.451Z,1033.86
2022-10-28T00:59:05.743Z,1033.78
2022-10-28T01:01:33.057Z,1033.73
2022-10-28T01:04:01.564Z,1033.78
2022-10-28T01:06:29.853Z,1033.74
2022-10-28T01:08:59.920Z,1033.68
2022-10-28T01:11:54.144Z,1033.74
2022-10-28T01:14:33.697Z,1033.59
2022-10-28T01:17:12.711Z,1033.68
2022-10-28T01:20:23.443Z,1033.77
2022-10-28T01:22:58.122Z,1033.61
2022-10-28T01:26:05.698Z,1033.61
2022-10-28T01:28:56.622Z,1033.69
2022-10-28T01:31:36.443Z,1033.68
2022-10-28T01:34:12.025Z,1033.69
2022-10-28T01:36:48.477Z,1033.64
2022-10-28T01:39:24.654Z,1033.63
2022-10-28T01:41:59.252Z,1033.65
2022-10-28T01:44:33.066Z,1033.64
2022-10-28T01:47:10.729Z,1033.56
2022-10-28T01:49:41.250Z,1033.61
2022-10-28T01:52:12.945Z,1033.60
2022-10-28T01:54:46.352Z,1033.56
2022-10-28T01:57:16.027Z,1033.67
2022-10-28T01:59:45.233Z,1033.77
2022-10-28T02:02:14.850Z,1033.64
2022-10-28T02:04:41.637Z,1033.69
2022-10-28T02:07:08.633Z,1033.77
2022-10-28T02:09:51.210Z,1033.66
2022-10-28T02:12:24.210Z,1033.62
2022-10-28T02:15:11.753Z,1033.63
2022-10-28T02:17:50.479Z,1033.55
2022-10-28T02:20:27.203Z,1033.66
2022-10-28T02:23:08.302Z,1033.66
2022-10-28T02:25:41.659Z,1033.70
2022-10-28T02:30:48.155Z,1033.65
2022-10-28T02:33:22.398Z,1033.55
2022-10-28T02:35:54.774Z,1033.64
2022-10-28T02:38:28.094Z,1033.66
2022-10-28T02:41:04.354Z,1033.51
2022-10-28T02:43:36.504Z,1033.47
2022-10-28T02:46:04.649Z,1033.34
2022-10-28T02:48:37.078Z,1033.45
2022-10-28T02:51:09.186Z,1033.47
2022-10-28T02:53:45.153Z,1033.56
2022-10-28T02:56:15.713Z,1033.65
2022-10-28T02:58:44.294Z,1033.66
2022-10-28T03:01:14.465Z,1033.70
2022-10-28T03:03:43.074Z,1033.68
2022-10-28T03:06:09.823Z,1033.67
2022-10-28T03:08:36.567Z,1033.78
2022-10-28T03:11:03.574Z,1033.60
2022-10-28T03:13:30.323Z,1033.72
2022-10-28T03:15:57.167Z,1033.60
2022-10-28T03:18:24.099Z,1033.56
2022-10-28T03:20:56.647Z,1033.68
2022-10-28T03:23:25.692Z,1033.75
2022-10-28T03:25:53.943Z,1033.82
2022-10-28T03:28:20.721Z,1033.79
2022-10-28T03:30:47.639Z,1033.78
2022-10-28T03:33:14.385Z,1033.69
2022-10-28T03:35:41.323Z,1033.80
2022-10-28T03:38:09.538Z,1033.70
2022-10-28T03:40:37.553Z,1033.75
2022-10-28T03:43:04.318Z,1033.47
2022-10-28T03:45:31.220Z,1033.50
2022-10-28T03:47:57.994Z,1033.51
2022-10-28T03:50:24.739Z,1033.57
2022-10-28T03:52:52.686Z,1033.58
2022-10-28T03:55:20.823Z,1033.53
2022-10-28T03:57:47.765Z,1033.51
2022-10-28T04:00:16.464Z,1033.51
2022-10-28T04:02:49.772Z,1033.58
2022-10-28T04:05:16.595Z,1033.60
2022-10-28T04:07:44.691Z,1033.62
2022-10-28T04:10:12.103Z,1033.70
2022-10-28T04:12:40.836Z,1033.61
2022-10-28T04:15:08.221Z,1033.52
2022-10-28T04:17:36.690Z,1033.46
2022-10-28T04:20:04.086Z,1033.43
2022-10-28T04:22:32.079Z,1033.39
2022-10-28T04:24:58.902Z,1033.34
2022-10-28T04:27:25.859Z,1033.29
2022-10-28T04:29:54.020Z,1033.28
2022-10-28T04:32:20.791Z,1033.20
2022-10-28T04:34:47.714Z,1033.14
2022-10-28T04:37:18.329Z,1033.10
2022-10-28T04:39:47.379Z,1033.19
2022-10-28T04:42:14.236Z,1033.35
2022-10-28T04:44:41.222Z,1033.32
2022-10-28T04:47:09.351Z,1033.29
2022-10-28T04:49:40.034Z,1033.37
2022-10-28T04:52:08.775Z,1033.32
2022-10-28T04:54:37.831Z,1033.37
2022-10-28T04:57:04.985Z,1033.32
2022-10-28T04:59:31.998Z,1033.26
2022-10-28T05:01:58.979Z,1033.22
2022-10-28T05:04:27.232Z,1033.24
2022-10-28T05:06:53.976Z,1033.24
2022-10-28T05:09:21.933Z,1033.28
2022-10-28T05:11:48.763Z,1033.35
2022-10-28T05:14:17.412Z,1033.45
2022-10-28T05:16:46.455Z,1033.34
2022-10-28T05:19:13.178Z,1033.45
2022-10-28T05:21:41.468Z,1033.45
2022-10-28T05:24:08.639Z,1033.46
2022-10-28T05:26:35.759Z,1033.55
2022-10-28T05:29:02.510Z,1033.46
2022-10-28T05:31:33.732Z,1033.50
2022-10-28T05:34:00.521Z,1033.48
2022-10-28T05:36:27.402Z,1033.44
2022-10-28T05:38:55.553Z,1033.48
2022-10-28T05:41:23.369Z,1033.51
2022-10-28T05:43:51.793Z,1033.53
2022-10-28T05:46:18.985Z,1033.56
2022-10-28T05:48:45.838Z,1033.55
2022-10-28T05:51:14.359Z,1033.48
2022-10-28T05:53:43.708Z,1033.54
2022-10-28T05:56:11.849Z,1033.67
2022-10-28T05:58:41.017Z,1033.57
2022-10-28T06:01:08.546Z,1033.69
2022-10-28T06:03:38.182Z,1033.56
2022-10-28T06:06:05.435Z,1033.53
2022-10-28T06:08:34.513Z,1033.54
2022-10-28T06:10:59.727Z,1033.60
2022-10-28T06:13:28.572Z,1033.60
2022-10-28T06:15:55.840Z,1033.63
2022-10-28T06:18:23.418Z,1033.61
2022-10-28T06:20:52.267Z,1033.59
2022-10-28T06:23:20.870Z,1033.63
2022-10-28T06:28:31.558Z,1033.51
2022-10-28T06:31:02.881Z,1033.65
2022-10-28T06:33:30.931Z,1033.60
2022-10-28T06:35:58.168Z,1033.67
2022-10-28T06:38:25.537Z,1033.55
2022-10-28T06:40:55.657Z,1033.61
2022-10-28T06:43:22.469Z,1033.57
2022-10-28T06:45:50.937Z,1033.50
2022-10-28T06:48:19.396Z,1033.64
2022-10-28T06:50:46.508Z,1033.58
2022-10-28T06:53:13.333Z,1033.57
2022-10-28T06:55:40.641Z,1033.71
2022-10-28T06:58:07.662Z,1033.62
2022-10-28T07:00:35.046Z,1033.62
2022-10-28T07:03:03.379Z,1033.66
2022-10-28T07:05:31.378Z,1033.68
2022-10-28T07:07:58.172Z,1033.67
2022-10-28T07:10:27.659Z,1033.57
2022-10-28T07:12:55.452Z,1033.41
2022-10-28T07:15:23.833Z,1033.25
2022-10-28T07:17:55.956Z,1033.16
2022-10-28T07:20:25.941Z,1033.17
2022-10-28T07:22:56.349Z,1033.02
2022-10-28T07:25:23.237Z,1033.00
2022-10-28T07:27:50.059Z,1032.80
2022-10-28T07:30:16.949Z,1032.77
2022-10-28T07:32:51.280Z,1032.65
2022-10-28T07:35:17.984Z,1032.56
2022-10-28T07:37:47.456Z,1032.57
2022-10-28T07:40:16.627Z,1032.40
2022-10-28T07:42:43.500Z,1032.27
2022-10-28T07:45:10.482Z,1032.01
2022-10-28T07:47:38.030Z,1031.96
2022-10-28T07:50:06.971Z,1031.89
2022-10-28T07:52:36.827Z,1031.81
2022-10-28T07:55:06.586Z,1031.68
2022-10-28T07:57:35.529Z,1031.56
2022-10-28T08:00:05.316Z,1031.62
2022-10-28T08:02:33.867Z,1031.41
2022-10-28T08:05:00.776Z,1031.20
2022-10-28T08:07:29.331Z,1031.17
2022-10-28T08:09:57.371Z,1031.04
2022-10-28T08:12:25.549Z,1030.94
2022-10-28T08:14:52.418Z,1030.91
2022-10-28T08:17:19.144Z,1030.82
2022-10-28T08:19:48.197Z,1030.80
2022-10-28T08:22:15.004Z,1030.83
2022-10-28T08:24:41.882Z,1030.67
2022-10-28T08:27:09.010Z,1030.60
2022-10-28T08:29:37.882Z,1030.50
2022-10-28T08:32:08.145Z,1030.39
2022-10-28T08:34:40.794Z,1030.35
2022-10-28T08:37:11.013Z,1030.20
2022-10-28T08:39:39.113Z,1030.18
2022-10-28T08:42:21.953Z,1030.12
2022-10-28T08:45:02.984Z,1030.13
2022-10-28T08:47:41.773Z,1030.02
2022-10-28T08:50:14.832Z,1029.93
2022-10-28T08:52:47.568Z,1029.87
2022-10-28T08:55:20.905Z,1029.93
2022-10-28T08:57:52.838Z,1029.89
2022-10-28T09:00:25.624Z,1029.91
2022-10-28T09:03:12.911Z,1029.91
2022-10-28T09:05:46.733Z,1029.86
2022-10-28T09:08:21.115Z,1029.76
2022-10-28T09:11:03.978Z,1029.77
2022-10-28T09:13:44.474Z,1029.83
2022-10-28T09:16:20.092Z,1029.69
2022-10-28T09:18:52.486Z,1029.62
2022-10-28T09:21:26.183Z,1029.54
2022-10-28T09:23:57.780Z,1029.46
2022-10-28T09:26:39.402Z,1029.45
2022-10-28T09:29:21.407Z,1029.38
2022-10-28T09:31:55.133Z,1029.33
2022-10-28T09:34:31.395Z,1029.29
2022-10-28T09:37:04.462Z,1029.26
2022-10-28T09:39:42.974Z,1029.23
2022-10-28T09:42:16.827Z,1029.15
2022-10-28T09:44:50.252Z,1029.09
2022-10-28T09:47:25.519Z,1029.07
2022-10-28T09:50:05.442Z,1028.99
2022-10-28T09:52:40.304Z,1028.97
2022-10-28T09:55:19.984Z,1028.94
2022-10-28T09:57:47.270Z,1028.83
2022-10-28T10:00:19.842Z,1028.79
2022-10-28T10:02:50.902Z,1028.79
2022-10-28T10:05:20.455Z,1028.77
2022-10-28T10:07:52.635Z,1028.70
2022-10-28T10:10:25.441Z,1028.72
2022-10-28T10:12:55.865Z,1028.62
2022-10-28T10:15:31.562Z,1028.56
2022-10-28T10:18:02.213Z,1028.55
2022-10-28T10:20:47.000Z,1028.49
2022-10-28T10:23:23.195Z,1028.57
2022-10-28T10:25:56.043Z,1028.55
2022-10-28T10:28:25.284Z,1028.55
2022-10-28T10:30:54.845Z,1028.51
2022-10-28T10:33:32.343Z,1028.40
2022-10-28T10:36:03.175Z,1028.52
2022-10-28T10:38:31.717Z,1028.45
2022-10-28T10:40:59.413Z,1028.34
2022-10-28T10:43:33.384Z,1028.32
2022-10-28T10:46:03.310Z,1028.23
2022-10-28T10:48:32.857Z,1028.08
2022-10-28T10:51:06.755Z,1028.09
2022-10-28T10:53:35.377Z,1028.04
2022-10-28T10:56:05.993Z,1027.99
2022-10-28T10:58:36.594Z,1027.89
2022-10-28T11:01:06.658Z,1027.87
2022-10-28T11:03:38.099Z,1027.73
2022-10-28T11:06:23.038Z,1027.81
2022-10-28T11:11:46.865Z,1027.63
2022-10-28T11:14:24.609Z,1027.62
2022-10-28T11:16:53.501Z,1027.59
2022-10-28T11:19:23.411Z,1027.64
2022-10-28T11:22:07.657Z,1027.58
2022-10-28T11:24:54.271Z,1027.60
2022-10-28T11:27:34.850Z,1027.57
2022-10-28T11:30:05.234Z,1027.47
2022-10-28T11:33:08.118Z,1027.44
2022-10-28T11:35:52.944Z,1027.34
2022-10-28T11:38:34.784Z,1027.27
2022-10-28T11:41:15.238Z,1027.26
2022-10-28T11:43:54.773Z,1027.05
2022-10-28T11:46:39.181Z,1027.02
2022-10-28T11:49:34.144Z,1026.93
2022-10-28T11:52:23.155Z,1026.95
2022-10-28T11:54:59.578Z,1026.86
2022-10-28T11:57:46.174Z,1026.89
2022-10-28T12:00:25.300Z,1026.89
2022-10-28T12:03:08.506Z,1026.81
2022-10-28T12:05:44.815Z,1027.02
2022-10-28T12:08:29.556Z,1026.89
2022-10-28T12:11:20.745Z,1026.82
2022-10-28T12:13:55.693Z,1026.79
2022-10-28T12:16:33.101Z,1026.71
2022-10-28T12:19:03.770Z,1026.69
2022-10-28T12:24:11.355Z,1026.52
2022-10-28T12:26:45.650Z,1026.50
2022-10-28T12:29:20.517Z,1026.48
2022-10-28T12:31:53.512Z,1026.38
2022-10-28T12:34:29.863Z,1026.48
2022-10-28T12:37:02.095Z,1026.42
2022-10-28T12:39:35.183Z,1026.49
2022-10-28T12:42:11.140Z,1026.56
2022-10-28T12:44:39.130Z,1026.52
2022-10-28T12:47:17.758Z,1026.51
2022-10-28T12:49:54.092Z,1026.53
2022-10-28T12:52:32.797Z,1026.52
2022-10-28T12:55:07.081Z,1026.52
2022-10-28T12:57:39.118Z,1026.56
2022-10-28T13:00:15.932Z,1026.46
2022-10-28T13:02:51.127Z,1026.54
2022-10-28T13:05:24.213Z,1026.44
2022-10-28T13:08:12.636Z,1026.41
2022-10-28T13:10:48.514Z,1026.40
2022-10-28T13:13:39.246Z,1026.39
2022-10-28T13:16:31.459Z,1026.38
2022-10-28T13:19:16.069Z,1026.29
2022-10-28T13:22:10.533Z,1026.35
2022-10-28T13:24:51.010Z,1026.30
2022-10-28T13:27:21.682Z,1026.47
2022-10-28T13:29:54.439Z,1026.48
2022-10-28T13:32:34.176Z,1026.48
2022-10-28T13:35:13.727Z,1026.47
2022-10-28T13:37:41.867Z,1026.64
2022-10-28T13:40:21.499Z,1026.67
2022-10-28T13:42:52.554Z,1026.71
2022-10-28T13:45:45.528Z,1026.70
2022-10-28T13:48:52.434Z,1026.68
2022-10-28T13:51:33.997Z,1026.67
2022-10-28T13:54:01.029Z,1026.69
2022-10-28T13:56:50.618Z,1026.75
2022-10-28T13:59:47.045Z,1026.77
2022-10-28T14:02:34.645Z,1026.93
2022-10-28T14:05:07.260Z,1026.94
2022-10-28T14:07:36.294Z,1027.02
2022-10-28T14:10:20.786Z,1027.03
2022-10-28T14:12:54.399Z,1027.01
2022-10-28T14:15:29.077Z,1027.11
2022-10-28T14:18:15.851Z,1027.07
2022-10-28T14:20:57.524Z,1027.10
2022-10-28T14:23:42.930Z,1027.16
2022-10-28T14:26:11.157Z,1027.22
2022-10-28T14:28:55.072Z,1027.27
2022-10-28T14:31:42.226Z,1027.33
2022-10-28T14:34:44.887Z,1027.38
2022-10-28T14:37:31.187Z,1027.33
2022-10-28T14:40:19.524Z,1027.40
2022-10-28T14:43:14.447Z,1027.33
2022-10-28T14:45:52.359Z,1027.32
2022-10-28T14:48:47.047Z,1027.45
2022-10-28T14:51:16.687Z,1027.43
2022-10-28T14:53:46.373Z,1027.55
2022-10-28T14:56:20.840Z,1027.55
2022-10-28T14:58:50.210Z,1027.68
2022-10-28T15:01:24.193Z,1027.65
2022-10-28T15:03:55.019Z,1027.67
2022-10-28T15:06:27.033Z,1027.70
2022-10-28T15:08:55.538Z,1027.68
2022-10-28T15:11:31.113Z,1027.75
2022-10-28T15:14:17.301Z,1027.70
2022-10-28T15:16:49.203Z,1027.81
2022-10-28T15:19:30.437Z,1027.91
2022-10-28T15:22:25.364Z,1027.93
2022-10-28T15:24:55.975Z,1028.11
2022-10-28T15:27:24.077Z,1028.15
2022-10-28T15:29:53.442Z,1028.26
2022-10-28T15:32:31.928Z,1028.31
2022-10-28T15:35:21.414Z,1028.49
2022-10-28T15:37:50.368Z,1028.59
2022-10-28T15:40:22.163Z,1028.62
2022-10-28T15:42:57.147Z,1028.67
2022-10-28T15:45:28.949Z,1028.89
2022-10-28T15:47:57.465Z,1028.87
2022-10-28T15:50:37.884Z,1028.88
2022-10-28T15:53:38.852Z,1029.01
2022-10-28T15:56:19.933Z,1029.11
2022-10-28T15:58:49.225Z,1029.16
2022-10-28T16:01:31.335Z,1029.36
2022-10-28T16:03:58.348Z,1029.32
2022-10-28T16:06:32.353Z,1029.43
2022-10-28T16:09:04.195Z,1029.52
2022-10-28T16:11:34.634Z,1029.60
2022-10-28T16:14:07.556Z,1029.64
2022-10-28T16:16:35.416Z,1029.66
2022-10-28T16:19:07.749Z,1029.64
2022-10-28T16:21:38.256Z,1029.81
2022-10-28T16:24:06.367Z,1029.90
2022-10-28T16:26:34.476Z,1029.95
2022-10-28T16:29:02.763Z,1030.02
2022-10-28T16:31:32.134Z,1030.15
2022-10-28T16:33:59.442Z,1030.11
2022-10-28T16:36:27.961Z,1030.17
2022-10-28T16:38:56.461Z,1030.15
2022-10-28T16:41:24.394Z,1030.24
2022-10-28T16:43:51.598Z,1030.24
2022-10-28T16:46:18.439Z,1030.33
2022-10-28T16:48:46.329Z,1030.33
2022-10-28T16:51:15.255Z,1030.45
2022-10-28T16:53:43.198Z,1030.50
2022-10-28T16:56:14.430Z,1030.60
2022-10-28T16:58:43.191Z,1030.49
2022-10-28T17:01:11.070Z,1030.66
2022-10-28T17:03:39.175Z,1030.74
2022-10-28T17:06:06.332Z,1030.77
2022-10-28T17:11:21.438Z,1030.94
2022-10-28T17:13:50.495Z,1030.88
2022-10-28T17:16:17.239Z,1030.98
2022-10-28T17:18:49.299Z,1030.85
2022-10-28T17:21:16.314Z,1030.93
2022-10-28T17:23:43.330Z,1030.94
2022-10-28T17:26:11.027Z,1030.91
2022-10-28T17:28:40.607Z,1030.91
2022-10-28T17:31:08.998Z,1031.03
2022-10-28T17:33:36.190Z,1031.02
2022-10-28T17:36:03.619Z,1031.09
2022-10-28T17:38:30.394Z,1031.04
2022-10-28T17:40:58.193Z,1031.15
2022-10-28T17:43:25.295Z,1031.11
2022-10-28T17:46:03.460Z,1031.11
2022-10-28T17:48:30.235Z,1031.14
2022-10-28T17:50:57.970Z,1031.20
2022-10-28T17:53:24.841Z,1031.13
2022-10-28T17:55:56.001Z,1031.06
2022-10-28T17:58:22.949Z,1031.07
2022-10-28T18:00:50.172Z,1031.18
2022-10-28T18:03:19.391Z,1031.08
2022-10-28T18:05:46.361Z,1031.13
2022-10-28T18:08:13.818Z,1031.19
2022-10-28T18:10:51.207Z,1031.13
2022-10-28T18:13:18.065Z,1031.20
2022-10-28T18:15:45.036Z,1031.22
2022-10-28T18:18:11.973Z,1031.24
2022-10-28T18:20:41.687Z,1031.24
2022-10-28T18:23:08.559Z,1031.27
2022-10-28T18:25:35.471Z,1031.35
2022-10-28T18:28:05.121Z,1031.23
2022-10-28T18:30:34.543Z,1031.43
2022-10-28T18:33:01.704Z,1031.40
2022-10-28T18:35:28.659Z,1031.38
2022-10-28T18:37:57.608Z,1031.30
2022-10-28T18:40:24.662Z,1031.24
2022-10-28T18:42:53.047Z,1031.24
2022-10-28T18:45:19.909Z,1031.27
2022-10-28T18:47:46.932Z,1031.35
2022-10-28T18:50:13.913Z,1031.35
2022-10-28T18:52:40.994Z,1031.39
2022-10-28T18:55:09.621Z,1031.39
2022-10-28T18:57:37.769Z,1031.55
2022-10-28T19:00:17.909Z,1031.52
2022-10-28T19:02:47.810Z,1031.52
2022-10-28T19:05:15.112Z,1031.40
2022-10-28T19:07:42.569Z,1031.45
2022-10-28T19:10:11.428Z,1031.51
2022-10-28T19:12:42.870Z,1031.55
2022-10-28T19:15:12.300Z,1031.64
2022-10-28T19:17:39.285Z,1031.60
2022-10-28T19:20:07.100Z,1031.69
2022-10-28T19:22:34.000Z,1031.69
2022-10-28T19:25:02.249Z,1031.68
2022-10-28T19:27:30.601Z,1031.65
2022-10-28T19:29:57.784Z,1031.67
2022-10-28T19:32:24.697Z,1031.69
2022-10-28T19:34:52.057Z,1031.62
2022-10-28T19:37:19.287Z,1031.74
2022-10-28T19:39:46.249Z,1031.73
2022-10-28T19:42:12.985Z,1031.81
2022-10-28T19:44:43.351Z,1031.83
2022-10-28T19:47:10.266Z,1031.78
2022-10-28T19:49:43.457Z,1031.88
2022-10-28T19:52:11.414Z,1031.87
2022-10-28T19:54:38.664Z,1031.77
2022-10-28T19:57:05.656Z,1031.83
2022-10-28T19:59:32.855Z,1031.73
2022-10-28T20:02:01.285Z,1031.75
2022-10-28T20:04:28.130Z,1031.77
2022-10-28T20:06:55.334Z,1031.77
2022-10-28T20:09:27.909Z,1031.80
2022-10-28T20:11:57.990Z,1031.78
2022-10-28T20:14:25.249Z,1031.86
2022-10-28T20:16:52.197Z,1031.75
2022-10-28T20:19:20.426Z,1031.90
2022-10-28T20:21:47.411Z,1031.81
2022-10-28T20:24:14.270Z,1031.87
2022-10-28T20:26:42.236Z,1031.86
2022-10-28T20:29:09.180Z,1031.87
2022-10-28T20:31:36.423Z,1031.83
2022-10-28T20:34:04.269Z,1031.98
2022-10-28T20:36:34.132Z,1031.89
2022-10-28T20:39:04.299Z,1032.03
2022-10-28T20:41:33.035Z,1032.00
2022-10-28T20:44:00.514Z,1032.02
2022-10-28T20:46:27.527Z,1032.06
2022-10-28T20:48:54.856Z,1031.97
2022-10-28T20:51:21.999Z,1032.12
2022-10-28T20:53:51.560Z,1032.25
2022-10-28T20:56:19.997Z,1032.31
2022-10-28T20:58:47.353Z,1032.30
2022-10-28T21:01:16.289Z,1032.26
2022-10-28T21:03:46.533Z,1032.21
2022-10-28T21:06:15.161Z,1032.17
2022-10-28T21:08:42.630Z,1032.22
2022-10-28T21:11:14.105Z,1032.23
2022-10-28T21:13:42.133Z,1032.22
2022-10-28T21:16:11.121Z,1032.22
2022-10-28T21:18:40.464Z,1032.14
2022-10-28T21:21:07.488Z,1032.05
2022-10-28T21:23:36.880Z,1032.03
2022-10-28T21:26:06.210Z,1032.02
2022-10-28T21:28:35.417Z,1032.00
2022-10-28T21:31:04.059Z,1032.08
2022-10-28T21:33:31.379Z,1032.06
2022-10-28T21:35:59.658Z,1032.07
2022-10-28T21:38:27.884Z,1032.12
2022-10-28T21:41:02.647Z,1032.16
2022-10-28T21:43:30.504Z,1032.18
2022-10-28T21:45:59.427Z,1032.21
2022-10-28T21:48:27.977Z,1032.14
2022-10-28T21:50:57.313Z,1032.15
2022-10-28T21:53:25.062Z,1032.08
2022-10-28T21:55:53.881Z,1032.10
2022-10-28T21:58:22.056Z,1032.06
2022-10-28T22:00:50.932Z,1032.09
2022-10-28T22:03:19.100Z,1032.07
2022-10-28T22:05:51.889Z,1032.16
2022-10-28T22:08:18.684Z,1032.02
2022-10-28T22:10:45.667Z,1032.06
2022-10-28T22:13:12.711Z,1032.02
2022-10-28T22:15:40.675Z,1031.91
2022-10-28T22:18:07.463Z,1031.79
2022-10-28T22:20:35.746Z,1031.81
2022-10-28T22:23:02.640Z,1031.88
2022-10-28T22:25:29.538Z,1032.01
2022-10-28T22:27:56.538Z,1031.93
2022-10-28T22:30:23.451Z,1031.98
2022-10-28T22:32:50.215Z,1031.94
2022-10-28T22:35:16.995Z,1031.96
2022-10-28T22:37:45.436Z,1031.96
2022-10-28T22:40:12.652Z,1031.96
2022-10-28T22:42:39.589Z,1031.92
2022-10-28T22:45:07.784Z,1031.91
2022-10-28T22:47:34.940Z,1031.92
2022-10-28T22:50:01.724Z,1031.83
2022-10-28T22:52:28.963Z,1031.79
2022-10-28T22:54:57.271Z,1031.79
2022-10-28T22:57:24.068Z,1032.00
2022-10-28T22:59:52.022Z,1031.96
2022-10-28T23:02:19.955Z,1031.97
2022-10-28T23:04:46.930Z,1031.99
2022-10-28T23:07:13.753Z,1031.96
2022-10-28T23:09:40.779Z,1031.82
2022-10-28T23:12:09.182Z,1031.94
2022-10-28T23:14:36.030Z,1031.95
2022-10-28T23:17:02.852Z,1031.87
2022-10-28T23:19:30.900Z,1031.86
2022-10-28T23:21:57.620Z,1031.92
2022-10-28T23:24:24.796Z,1031.94
2022-10-28T23:26:51.827Z,1031.90
2022-10-28T23:29:20.312Z,1031.92
2022-10-28T23:31:47.479Z,1031.91
2022-10-28T23:34:15.456Z,1031.85
2022-10-28T23:36:42.312Z,1031.87
2022-10-28T23:39:09.370Z,1031.97
2022-10-28T23:41:36.161Z,1031.92
2022-10-28T23:44:03.353Z,1031.86
2022-10-28T23:46:36.525Z,1031.92
2022-10-28T23:49:04.890Z,1031.96
2022-10-28T23:51:31.846Z,1031.95
2022-10-28T23:53:59.190Z,1031.93
2022-10-28T23:56:26.033Z,1031.92
2022-10-28T23:58:53.930Z,1031.88
